sensor_id;sensor_type;location;lat;lon;timestamp;pressure;altitude;pressure_sealevel;temperature;humidity
68489;BME280;55481;48.764;8.936;2024-02-14T00:01:53;97400;;;1.5;74
68489;BME280;55481;48.764;8.936;2024-02-14T00:04:31;97390;;;1.7;73.5
68489;BME280;55481;48.764;8.936;2024-02-14T00:07:01;97400;;;1.7;74
68489;BME280;55481;48.764;8.936;2024-02-14T00:09:32;97400;;;1.8;73.5
68489;BME280;55481;48.764;8.936;2024-02-14T00:12:03;97400;;;2;73
68489;BME280;55481;48.764;8.936;2024-02-14T00:16:58;97410;;;2.1;73
68489;BME280;55481;48.764;8.936;2024-02-14T00:19:29;97400;;;2;73.5
68489;BME280;55481;48.764;8.936;2024-02-14T00:27:02;97400;;;2.3;73
68489;BME280;55481;48.764;8.936;2024-02-14T00:29:32;97400;;;2.2;73.5
68489;BME280;55481;48.764;8.936;2024-02-14T00:32:03;97400;;;2.3;73
68489;BME280;55481;48.764;8.936;2024-02-14T00:34:36;97400;;;2.4;73
68489;BME280;55481;48.764;8.936;2024-02-14T00:39:41;97410;;;2.6;73
68489;BME280;55481;48.764;8.936;2024-02-14T00:42:12;97410;;;2.5;73.5
68489;BME280;55481;48.764;8.936;2024-02-14T00:44:43;97410;;;2.6;73.5
68489;BME280;55481;48.764;8.936;2024-02-14T00:47:06;97410;;;2.7;73.5
68489;BME280;55481;48.764;8.936;2024-02-14T00:54:39;97410;;;3;73
68489;BME280;55481;48.764;8.936;2024-02-14T00:57:10;97410;;;3.1;73
68489;BME280;55481;48.764;8.936;2024-02-14T00:59:40;97410;;;3.2;73
68489;BME280;55481;48.764;8.936;2024-02-14T01:02:18;97410;;;3.2;73
68489;BME280;55481;48.764;8.936;2024-02-14T01:04:49;97410;;;3.3;73
68489;BME280;55481;48.764;8.936;2024-02-14T01:09:44;97420;;;3.3;73
68489;BME280;55481;48.764;8.936;2024-02-14T01:15:01;97420;;;3.4;73
68489;BME280;55481;48.764;8.936;2024-02-14T01:17:28;97420;;;3.5;72.5
68489;BME280;55481;48.764;8.936;2024-02-14T01:20:01;97420;;;3.2;73.5
68489;BME280;55481;48.764;8.936;2024-02-14T01:22:29;97420;;;3.4;73.5
68489;BME280;55481;48.764;8.936;2024-02-14T01:24:59;97410;;;3.5;73
68489;BME280;55481;48.764;8.936;2024-02-14T01:27:30;97400;;;3.6;73
68489;BME280;55481;48.764;8.936;2024-02-14T01:34:56;97380;;;3.7;73
68489;BME280;55481;48.764;8.936;2024-02-14T01:40:06;97380;;;3.7;73
68489;BME280;55481;48.764;8.936;2024-02-14T01:42:35;97380;;;3.7;73
68489;BME280;55481;48.764;8.936;2024-02-14T01:47:29;97380;;;3.9;72.5
68489;BME280;55481;48.764;8.936;2024-02-14T01:50:00;97380;;;3.9;72.5
68489;BME280;55481;48.764;8.936;2024-02-14T01:52:31;97370;;;3.9;72.5
68489;BME280;55481;48.764;8.936;2024-02-14T01:55:08;97380;;;4;72.5
68489;BME280;55481;48.764;8.936;2024-02-14T01:57:46;97370;;;4.1;72.5
68489;BME280;55481;48.764;8.936;2024-02-14T02:02:40;97360;;;4.2;72.5
68489;BME280;55481;48.764;8.936;2024-02-14T02:07:41;97370;;;4.2;72.5
68489;BME280;55481;48.764;8.936;2024-02-14T02:10:12;97370;;;4.2;72.5
68489;BME280;55481;48.764;8.936;2024-02-14T02:18:27;97370;;;4.1;74
68489;BME280;55481;48.764;8.936;2024-02-14T02:20:58;97370;;;3.8;74.5
68489;BME280;55481;48.764;8.936;2024-02-14T02:23:28;97370;;;3.6;74.5
68489;BME280;55481;48.764;8.936;2024-02-14T02:25:59;97360;;;3.6;74.5
68489;BME280;55481;48.764;8.936;2024-02-14T02:28:30;97360;;;3.7;74
68489;BME280;55481;48.764;8.936;2024-02-14T02:31:00;97360;;;3.8;74
68489;BME280;55481;48.764;8.936;2024-02-14T02:36:02;97350;;;3.9;73.5
68489;BME280;55481;48.764;8.936;2024-02-14T02:43:34;97330;;;4.1;73
68489;BME280;55481;48.764;8.936;2024-02-14T02:46:05;97320;;;4.1;73
68489;BME280;55481;48.764;8.936;2024-02-14T02:48:36;97320;;;4;73
68489;BME280;55481;48.764;8.936;2024-02-14T02:51:07;97320;;;4.1;73
68489;BME280;55481;48.764;8.936;2024-02-14T02:53:37;97310;;;4;73.5
68489;BME280;55481;48.764;8.936;2024-02-14T02:56:08;97320;;;3.9;73.5
68489;BME280;55481;48.764;8.936;2024-02-14T02:58:46;97330;;;3.8;73.5
68489;BME280;55481;48.764;8.936;2024-02-14T03:01:16;97330;;;3.8;73.5
68489;BME280;55481;48.764;8.936;2024-02-14T03:03:47;97330;;;3.8;73.5
68489;BME280;55481;48.764;8.936;2024-02-14T03:06:19;97320;;;3.7;73.5
68489;BME280;55481;48.764;8.936;2024-02-14T03:08:56;97330;;;3.7;74
68489;BME280;55481;48.764;8.936;2024-02-14T03:11:27;97340;;;3.6;74
68489;BME280;55481;48.764;8.936;2024-02-14T03:16:21;97340;;;3.5;74
68489;BME280;55481;48.764;8.936;2024-02-14T03:18:52;97340;;;3.4;74.5
68489;BME280;55481;48.764;8.936;2024-02-14T03:21:23;97340;;;3.5;74
68489;BME280;55481;48.764;8.936;2024-02-14T03:23:53;97350;;;3.7;73.5
68489;BME280;55481;48.764;8.936;2024-02-14T03:26:25;97340;;;3.8;73.5
68489;BME280;55481;48.764;8.936;2024-02-14T03:28:56;97340;;;3.9;73
68489;BME280;55481;48.764;8.936;2024-02-14T03:33:57;97350;;;4.1;73
68489;BME280;55481;48.764;8.936;2024-02-14T03:36:28;97350;;;4;73
68489;BME280;55481;48.764;8.936;2024-02-14T03:39:06;97360;;;4;73
68489;BME280;55481;48.764;8.936;2024-02-14T03:46:51;97360;;;3.9;73
68489;BME280;55481;48.764;8.936;2024-02-14T03:49:08;97360;;;3.9;73.5
68489;BME280;55481;48.764;8.936;2024-02-14T03:54:03;97360;;;3.9;73.5
68489;BME280;55481;48.764;8.936;2024-02-14T03:56:34;97360;;;3.8;73.5
68489;BME280;55481;48.764;8.936;2024-02-14T03:59:05;97360;;;3.7;73.5
68489;BME280;55481;48.764;8.936;2024-02-14T04:01:35;97350;;;3.7;74
68489;BME280;55481;48.764;8.936;2024-02-14T04:04:06;97350;;;3.6;74
68489;BME280;55481;48.764;8.936;2024-02-14T04:09:01;97350;;;3.6;74
68489;BME280;55481;48.764;8.936;2024-02-14T04:11:32;97350;;;3.6;74
68489;BME280;55481;48.764;8.936;2024-02-14T04:14:02;97350;;;3.5;74
68489;BME280;55481;48.764;8.936;2024-02-14T04:16:47;97350;;;3.5;74
68489;BME280;55481;48.764;8.936;2024-02-14T04:19:17;97360;;;3.6;73.5
68489;BME280;55481;48.764;8.936;2024-02-14T04:21:47;97360;;;3.6;73.5
68489;BME280;55481;48.764;8.936;2024-02-14T04:26:42;97370;;;3.7;74
68489;BME280;55481;48.764;8.936;2024-02-14T04:29:12;97370;;;3.8;73.5
68489;BME280;55481;48.764;8.936;2024-02-14T04:31:44;97370;;;3.9;73.5
68489;BME280;55481;48.764;8.936;2024-02-14T04:36:38;97370;;;3.5;74
68489;BME280;55481;48.764;8.936;2024-02-14T04:39:09;97380;;;3.4;74
68489;BME280;55481;48.764;8.936;2024-02-14T04:41:40;97380;;;3.4;74.5
68489;BME280;55481;48.764;8.936;2024-02-14T04:44:11;97390;;;3.4;74
68489;BME280;55481;48.764;8.936;2024-02-14T04:46:41;97390;;;3.5;74
68489;BME280;55481;48.764;8.936;2024-02-14T04:49:12;97380;;;3.5;74
68489;BME280;55481;48.764;8.936;2024-02-14T04:51:43;97390;;;3.4;74
68489;BME280;55481;48.764;8.936;2024-02-14T04:54:14;97380;;;3.4;74
68489;BME280;55481;48.764;8.936;2024-02-14T04:56:44;97380;;;3.4;74
68489;BME280;55481;48.764;8.936;2024-02-14T05:04:17;97380;;;3.5;74
68489;BME280;55481;48.764;8.936;2024-02-14T05:06:48;97380;;;3.6;73.5
68489;BME280;55481;48.764;8.936;2024-02-14T05:09:18;97380;;;3.7;73.5
68489;BME280;55481;48.764;8.936;2024-02-14T05:11:56;97390;;;3.8;73.5
68489;BME280;55481;48.764;8.936;2024-02-14T05:14:27;97380;;;3.9;73.5
68489;BME280;55481;48.764;8.936;2024-02-14T05:19:21;97370;;;4;73.5
68489;BME280;55481;48.764;8.936;2024-02-14T05:21:52;97370;;;4;73.5
68489;BME280;55481;48.764;8.936;2024-02-14T05:24:23;97370;;;4.1;73
68489;BME280;55481;48.764;8.936;2024-02-14T05:34:26;97370;;;3.9;74
68489;BME280;55481;48.764;8.936;2024-02-14T05:36:57;97370;;;3.9;74
68489;BME280;55481;48.764;8.936;2024-02-14T05:39:27;97360;;;3.9;74
68489;BME280;55481;48.764;8.936;2024-02-14T05:41:58;97360;;;4;74
68489;BME280;55481;48.764;8.936;2024-02-14T05:44:29;97360;;;4.1;73.5
68489;BME280;55481;48.764;8.936;2024-02-14T05:47:00;97370;;;4.2;73.5
68489;BME280;55481;48.764;8.936;2024-02-14T05:49:38;97360;;;4.4;73
68489;BME280;55481;48.764;8.936;2024-02-14T05:52:08;97370;;;4.5;73
68489;BME280;55481;48.764;8.936;2024-02-14T05:54:39;97370;;;4.6;73
68489;BME280;55481;48.764;8.936;2024-02-14T05:57:11;97380;;;4.6;73
68489;BME280;55481;48.764;8.936;2024-02-14T05:59:48;97370;;;4.7;73
68489;BME280;55481;48.764;8.936;2024-02-14T06:07:21;97370;;;4.7;73.5
68489;BME280;55481;48.764;8.936;2024-02-14T06:12:21;97370;;;4.8;73
68489;BME280;55481;48.764;8.936;2024-02-14T06:14:51;97380;;;4.9;73
68489;BME280;55481;48.764;8.936;2024-02-14T06:17:21;97380;;;4.9;73
68489;BME280;55481;48.764;8.936;2024-02-14T06:19:51;97380;;;4.9;73
68489;BME280;55481;48.764;8.936;2024-02-14T06:22:21;97380;;;4.9;73.5
68489;BME280;55481;48.764;8.936;2024-02-14T06:27:17;97380;;;4.9;73.5
68489;BME280;55481;48.764;8.936;2024-02-14T06:29:47;97380;;;4.9;73.5
68489;BME280;55481;48.764;8.936;2024-02-14T06:32:25;97380;;;4.9;73.5
68489;BME280;55481;48.764;8.936;2024-02-14T06:34:55;97390;;;4.9;73.5
68489;BME280;55481;48.764;8.936;2024-02-14T06:37:19;97390;;;4.8;74
68489;BME280;55481;48.764;8.936;2024-02-14T06:39:50;97390;;;4.9;73.5
68489;BME280;55481;48.764;8.936;2024-02-14T06:42:21;97390;;;4.8;73.5
68489;BME280;55481;48.764;8.936;2024-02-14T06:44:52;97390;;;4.8;74
68489;BME280;55481;48.764;8.936;2024-02-14T06:47:30;97390;;;4.8;74
68489;BME280;55481;48.764;8.936;2024-02-14T06:50:06;97400;;;4.8;73.5
68489;BME280;55481;48.764;8.936;2024-02-14T06:52:30;97400;;;4.8;73.5
68489;BME280;55481;48.764;8.936;2024-02-14T06:55:07;97400;;;4.8;74
68489;BME280;55481;48.764;8.936;2024-02-14T07:00:01;97400;;;4.8;74
68489;BME280;55481;48.764;8.936;2024-02-14T07:02:31;97400;;;4.9;74
68489;BME280;55481;48.764;8.936;2024-02-14T07:07:25;97400;;;4.9;74
68489;BME280;55481;48.764;8.936;2024-02-14T07:09:56;97410;;;5;73.5
68489;BME280;55481;48.764;8.936;2024-02-14T07:12:27;97410;;;5.1;73.5
68489;BME280;55481;48.764;8.936;2024-02-14T07:14:57;97420;;;5.1;73.5
68489;BME280;55481;48.764;8.936;2024-02-14T07:17:28;97420;;;5.2;73.5
68489;BME280;55481;48.764;8.936;2024-02-14T07:20:06;97430;;;5.2;73.5
68489;BME280;55481;48.764;8.936;2024-02-14T07:25:02;97420;;;5.3;73.5
68489;BME280;55481;48.764;8.936;2024-02-14T07:30:10;97430;;;5.3;73.5
68489;BME280;55481;48.764;8.936;2024-02-14T07:32:40;97430;;;5.5;73.5
68489;BME280;55481;48.764;8.936;2024-02-14T07:35:10;97430;;;5.5;73.5
68489;BME280;55481;48.764;8.936;2024-02-14T07:37:41;97430;;;5.5;73.5
68489;BME280;55481;48.764;8.936;2024-02-14T07:40:10;97430;;;5.6;73.5
68489;BME280;55481;48.764;8.936;2024-02-14T07:42:40;97430;;;5.7;73
68489;BME280;55481;48.764;8.936;2024-02-14T07:45:12;97430;;;5.8;73
68489;BME280;55481;48.764;8.936;2024-02-14T07:47:43;97430;;;6;72.5
68489;BME280;55481;48.764;8.936;2024-02-14T07:52:41;97440;;;6.8;71.5
68489;BME280;55481;48.764;8.936;2024-02-14T07:55:09;97440;;;6.8;71.5
68489;BME280;55481;48.764;8.936;2024-02-14T07:57:40;97440;;;6.6;72.5
68489;BME280;55481;48.764;8.936;2024-02-14T08:00:12;97450;;;6.7;72.5
68489;BME280;55481;48.764;8.936;2024-02-14T08:02:42;97450;;;6.5;73
68489;BME280;55481;48.764;8.936;2024-02-14T08:07:37;97440;;;6.8;72.5
68489;BME280;55481;48.764;8.936;2024-02-14T08:10:08;97450;;;6.8;72.5
68489;BME280;55481;48.764;8.936;2024-02-14T08:17:41;97440;;;6.9;72.5
68489;BME280;55481;48.764;8.936;2024-02-14T08:20:11;97450;;;7.1;72.5
68489;BME280;55481;48.764;8.936;2024-02-14T08:22:42;97450;;;7.1;72.5
68489;BME280;55481;48.764;8.936;2024-02-14T08:27:56;97440;;;7.1;72.5
68489;BME280;55481;48.764;8.936;2024-02-14T08:30:26;97440;;;7.2;72.5
68489;BME280;55481;48.764;8.936;2024-02-14T08:32:50;97450;;;7.2;72.5
68489;BME280;55481;48.764;8.936;2024-02-14T08:35:21;97450;;;7.2;72.5
68489;BME280;55481;48.764;8.936;2024-02-14T08:37:53;97450;;;7.3;72.5
68489;BME280;55481;48.764;8.936;2024-02-14T08:43:08;97460;;;7.4;72.5
68489;BME280;55481;48.764;8.936;2024-02-14T08:48:00;97450;;;7.5;72.5
68489;BME280;55481;48.764;8.936;2024-02-14T08:50:31;97450;;;7.5;72.5
68489;BME280;55481;48.764;8.936;2024-02-14T08:55:28;97450;;;7.7;72
68489;BME280;55481;48.764;8.936;2024-02-14T08:57:56;97450;;;7.8;72
68489;BME280;55481;48.764;8.936;2024-02-14T09:00:27;97450;;;7.9;72
68489;BME280;55481;48.764;8.936;2024-02-14T09:02:51;97460;;;7.9;72
68489;BME280;55481;48.764;8.936;2024-02-14T09:10:23;97460;;;8.1;72
68489;BME280;55481;48.764;8.936;2024-02-14T09:12:55;97460;;;8.1;72
68489;BME280;55481;48.764;8.936;2024-02-14T09:15:25;97460;;;8.2;72
68489;BME280;55481;48.764;8.936;2024-02-14T09:17:55;97460;;;8.3;71.5
68489;BME280;55481;48.764;8.936;2024-02-14T09:20:33;97460;;;8.3;72
68489;BME280;55481;48.764;8.936;2024-02-14T09:23:04;97460;;;8.3;72
68489;BME280;55481;48.764;8.936;2024-02-14T09:25:35;97460;;;8.2;72
68489;BME280;55481;48.764;8.936;2024-02-14T09:28:07;97460;;;8.3;72
68489;BME280;55481;48.764;8.936;2024-02-14T09:30:30;97460;;;8.4;72
68489;BME280;55481;48.764;8.936;2024-02-14T09:40:38;97450;;;8.6;72
68489;BME280;55481;48.764;8.936;2024-02-14T09:43:05;97450;;;8.5;72
68489;BME280;55481;48.764;8.936;2024-02-14T09:45:34;97450;;;8.5;72
68489;BME280;55481;48.764;8.936;2024-02-14T09:48:05;97470;;;8.6;72
68489;BME280;55481;48.764;8.936;2024-02-14T09:50:50;97460;;;8.7;72
68489;BME280;55481;48.764;8.936;2024-02-14T09:53:19;97450;;;8.7;72
68489;BME280;55481;48.764;8.936;2024-02-14T09:58:14;97450;;;8.6;72
68489;BME280;55481;48.764;8.936;2024-02-14T10:00:45;97450;;;8.6;72
68489;BME280;55481;48.764;8.936;2024-02-14T10:03:16;97450;;;8.6;72
68489;BME280;55481;48.764;8.936;2024-02-14T10:05:54;97450;;;8.7;72
68489;BME280;55481;48.764;8.936;2024-02-14T10:10:49;97440;;;9.2;71.5
68489;BME280;55481;48.764;8.936;2024-02-14T10:15:57;97440;;;9.5;70.5
68489;BME280;55481;48.764;8.936;2024-02-14T10:18:26;97440;;;9.8;70.5
68489;BME280;55481;48.764;8.936;2024-02-14T10:20:56;97440;;;10.1;70
68489;BME280;55481;48.764;8.936;2024-02-14T10:25:57;97430;;;10.4;69.5
68489;BME280;55481;48.764;8.936;2024-02-14T10:28:25;97420;;;10.3;70
68489;BME280;55481;48.764;8.936;2024-02-14T10:30:54;97420;;;10.5;69.5
68489;BME280;55481;48.764;8.936;2024-02-14T10:33:33;97430;;;10.5;69.5
68489;BME280;55481;48.764;8.936;2024-02-14T10:38:26;97420;;;10.8;69.5
68489;BME280;55481;48.764;8.936;2024-02-14T10:40:58;97420;;;11;69
68489;BME280;55481;48.764;8.936;2024-02-14T10:43:28;97420;;;11.2;68.5
68489;BME280;55481;48.764;8.936;2024-02-14T10:46:08;97420;;;11.3;68.5
68489;BME280;55481;48.764;8.936;2024-02-14T10:48:37;97420;;;11.3;69
68489;BME280;55481;48.764;8.936;2024-02-14T10:51:05;97420;;;11.5;68.5
68489;BME280;55481;48.764;8.936;2024-02-14T10:53:42;97420;;;11.6;68.5
68489;BME280;55481;48.764;8.936;2024-02-14T10:55:59;97420;;;11.6;69
68489;BME280;55481;48.764;8.936;2024-02-14T10:58:30;97430;;;11.6;69
68489;BME280;55481;48.764;8.936;2024-02-14T11:03:25;97440;;;11.6;69.5
68489;BME280;55481;48.764;8.936;2024-02-14T11:05:56;97440;;;11.5;69.5
68489;BME280;55481;48.764;8.936;2024-02-14T11:10:58;97450;;;11.6;70
68489;BME280;55481;48.764;8.936;2024-02-14T11:13:28;97450;;;11.5;70
68489;BME280;55481;48.764;8.936;2024-02-14T11:16:02;97450;;;11.4;70
68489;BME280;55481;48.764;8.936;2024-02-14T11:21:15;97440;;;11.2;71
68489;BME280;55481;48.764;8.936;2024-02-14T11:23:37;97450;;;11.2;71
68489;BME280;55481;48.764;8.936;2024-02-14T11:26:14;97460;;;11.2;71
68489;BME280;55481;48.764;8.936;2024-02-14T11:28:40;97450;;;11.3;70.5
68489;BME280;55481;48.764;8.936;2024-02-14T11:31:10;97460;;;11.5;70.5
68489;BME280;55481;48.764;8.936;2024-02-14T11:41:06;97460;;;11.6;70.5
68489;BME280;55481;48.764;8.936;2024-02-14T11:43:37;97450;;;11.8;70
68489;BME280;55481;48.764;8.936;2024-02-14T11:46:08;97440;;;11.8;70
68489;BME280;55481;48.764;8.936;2024-02-14T11:48:39;97440;;;12.3;69
68489;BME280;55481;48.764;8.936;2024-02-14T11:51:10;97440;;;12.4;69
68489;BME280;55481;48.764;8.936;2024-02-14T11:53:40;97440;;;12.4;69
68489;BME280;55481;48.764;8.936;2024-02-14T11:56:11;97440;;;12.7;68.5
68489;BME280;55481;48.764;8.936;2024-02-14T11:58:42;97430;;;12.8;68.5
68489;BME280;55481;48.764;8.936;2024-02-14T12:01:13;97440;;;12.5;69
68489;BME280;55481;48.764;8.936;2024-02-14T12:11:22;97440;;;12.2;70
68489;BME280;55481;48.764;8.936;2024-02-14T12:13:52;97440;;;12.3;70
68489;BME280;55481;48.764;8.936;2024-02-14T12:16:25;97440;;;11.9;70.5
68489;BME280;55481;48.764;8.936;2024-02-14T12:19:03;97450;;;11.9;70.5
68489;BME280;55481;48.764;8.936;2024-02-14T12:23:48;97440;;;12.1;70
68489;BME280;55481;48.764;8.936;2024-02-14T12:28:51;97440;;;12.5;69.5
68489;BME280;55481;48.764;8.936;2024-02-14T12:39:18;97420;;;13.4;68
68489;BME280;55481;48.764;8.936;2024-02-14T12:41:35;97410;;;13.5;68
68489;BME280;55481;48.764;8.936;2024-02-14T12:44:06;97410;;;13.8;67.5
68489;BME280;55481;48.764;8.936;2024-02-14T12:46:36;97410;;;14.1;67
68489;BME280;55481;48.764;8.936;2024-02-14T12:49:06;97410;;;14.4;66.5
68489;BME280;55481;48.764;8.936;2024-02-14T12:51:36;97410;;;14.4;67
68489;BME280;55481;48.764;8.936;2024-02-14T12:54:06;97410;;;14.7;66.5
68489;BME280;55481;48.764;8.936;2024-02-14T12:56:37;97410;;;14.8;66.5
68489;BME280;55481;48.764;8.936;2024-02-14T13:01:32;97400;;;14.6;67.5
68489;BME280;55481;48.764;8.936;2024-02-14T13:04:03;97400;;;14.2;68.5
68489;BME280;55481;48.764;8.936;2024-02-14T13:09:11;97400;;;14.4;68
68489;BME280;55481;48.764;8.936;2024-02-14T13:11:41;97400;;;14.2;68.5
68489;BME280;55481;48.764;8.936;2024-02-14T13:16:35;97390;;;14.2;69
68489;BME280;55481;48.764;8.936;2024-02-14T13:19:06;97390;;;14.6;68
68489;BME280;55481;48.764;8.936;2024-02-14T13:21:38;97380;;;14.7;68
68489;BME280;55481;48.764;8.936;2024-02-14T13:29:22;97380;;;13.9;70
68489;BME280;55481;48.764;8.936;2024-02-14T13:31:46;97380;;;13.7;70
68489;BME280;55481;48.764;8.936;2024-02-14T13:36:40;97380;;;13.5;70.5
68489;BME280;55481;48.764;8.936;2024-02-14T13:39:13;97380;;;13.4;70.5
68489;BME280;55481;48.764;8.936;2024-02-14T13:41:41;97380;;;13.3;70.5
68489;BME280;55481;48.764;8.936;2024-02-14T13:44:13;97380;;;13.2;70.5
68489;BME280;55481;48.764;8.936;2024-02-14T13:46:44;97390;;;12.9;71
68489;BME280;55481;48.764;8.936;2024-02-14T13:54:08;97400;;;12.7;71
68489;BME280;55481;48.764;8.936;2024-02-14T13:59:10;97400;;;12.9;70.5
68489;BME280;55481;48.764;8.936;2024-02-14T14:01:41;97400;;;12.9;70.5
68489;BME280;55481;48.764;8.936;2024-02-14T14:04:12;97400;;;12.8;70.5
68489;BME280;55481;48.764;8.936;2024-02-14T14:06:43;97390;;;12.8;70.5
68489;BME280;55481;48.764;8.936;2024-02-14T14:09:20;97400;;;12.8;70.5
68489;BME280;55481;48.764;8.936;2024-02-14T14:11:53;97390;;;12.8;70.5
68489;BME280;55481;48.764;8.936;2024-02-14T14:14:22;97400;;;12.8;70.5
68489;BME280;55481;48.764;8.936;2024-02-14T14:16:53;97400;;;12.7;70.5
68489;BME280;55481;48.764;8.936;2024-02-14T14:19:24;97400;;;12.7;70.5
68489;BME280;55481;48.764;8.936;2024-02-14T14:22:02;97410;;;12.7;70.5
68489;BME280;55481;48.764;8.936;2024-02-14T14:29:34;97400;;;12.6;70.5
68489;BME280;55481;48.764;8.936;2024-02-14T14:32:04;97400;;;12.7;70.5
68489;BME280;55481;48.764;8.936;2024-02-14T14:34:28;97390;;;12.7;70.5
68489;BME280;55481;48.764;8.936;2024-02-14T14:36:59;97400;;;12.9;70
68489;BME280;55481;48.764;8.936;2024-02-14T14:39:30;97400;;;12.8;70
68489;BME280;55481;48.764;8.936;2024-02-14T14:42:01;97400;;;12.7;70.5
68489;BME280;55481;48.764;8.936;2024-02-14T14:44:32;97400;;;12.7;70.5
68489;BME280;55481;48.764;8.936;2024-02-14T14:47:03;97400;;;12.6;70.5
68489;BME280;55481;48.764;8.936;2024-02-14T14:49:40;97400;;;12.6;70.5
68489;BME280;55481;48.764;8.936;2024-02-14T14:54:35;97390;;;12.6;70.5
68489;BME280;55481;48.764;8.936;2024-02-14T14:57:07;97390;;;12.6;70.5
68489;BME280;55481;48.764;8.936;2024-02-14T14:59:43;97400;;;12.6;70.5
68489;BME280;55481;48.764;8.936;2024-02-14T15:02:13;97390;;;12.5;70.5
68489;BME280;55481;48.764;8.936;2024-02-14T15:04:44;97390;;;12.5;71
68489;BME280;55481;48.764;8.936;2024-02-14T15:09:38;97390;;;12.4;71
68489;BME280;55481;48.764;8.936;2024-02-14T15:12:09;97390;;;12.4;71
68489;BME280;55481;48.764;8.936;2024-02-14T15:14:40;97390;;;12.4;71
68489;BME280;55481;48.764;8.936;2024-02-14T15:17:18;97390;;;12.5;71
68489;BME280;55481;48.764;8.936;2024-02-14T15:24:50;97400;;;12.3;71
68489;BME280;55481;48.764;8.936;2024-02-14T15:27:20;97390;;;12.2;71.5
68489;BME280;55481;48.764;8.936;2024-02-14T15:29:44;97400;;;12.2;71
68489;BME280;55481;48.764;8.936;2024-02-14T15:32:16;97400;;;12.2;71
68489;BME280;55481;48.764;8.936;2024-02-14T15:34:46;97400;;;12.2;71
68489;BME280;55481;48.764;8.936;2024-02-14T15:37:10;97400;;;12.2;71
68489;BME280;55481;48.764;8.936;2024-02-14T15:47:13;97400;;;12.1;71
68489;BME280;55481;48.764;8.936;2024-02-14T15:49:44;97410;;;12.1;71
68489;BME280;55481;48.764;8.936;2024-02-14T15:52:17;97410;;;12.1;71
68489;BME280;55481;48.764;8.936;2024-02-14T15:57:16;97410;;;12.1;71
68489;BME280;55481;48.764;8.936;2024-02-14T15:59:47;97420;;;12;71
68489;BME280;55481;48.764;8.936;2024-02-14T16:02:18;97410;;;12;71
68489;BME280;55481;48.764;8.936;2024-02-14T16:04:55;97410;;;12;71
68489;BME280;55481;48.764;8.936;2024-02-14T16:07:26;97420;;;12;71
68489;BME280;55481;48.764;8.936;2024-02-14T16:09:57;97420;;;12;71
68489;BME280;55481;48.764;8.936;2024-02-14T16:12:34;97420;;;12;71
68489;BME280;55481;48.764;8.936;2024-02-14T16:17:42;97420;;;12;71
68489;BME280;55481;48.764;8.936;2024-02-14T16:20:06;97420;;;11.9;71
68489;BME280;55481;48.764;8.936;2024-02-14T16:22:29;97420;;;11.9;71
68489;BME280;55481;48.764;8.936;2024-02-14T16:25:02;97410;;;11.9;71
68489;BME280;55481;48.764;8.936;2024-02-14T16:29:55;97420;;;11.9;71
68489;BME280;55481;48.764;8.936;2024-02-14T16:32:26;97420;;;11.9;71
68489;BME280;55481;48.764;8.936;2024-02-14T16:37:28;97420;;;11.9;71
68489;BME280;55481;48.764;8.936;2024-02-14T16:45:00;97420;;;11.8;71
68489;BME280;55481;48.764;8.936;2024-02-14T16:47:31;97420;;;11.8;71
68489;BME280;55481;48.764;8.936;2024-02-14T16:52:45;97430;;;11.8;71
68489;BME280;55481;48.764;8.936;2024-02-14T16:55:16;97430;;;11.7;71.5
68489;BME280;55481;48.764;8.936;2024-02-14T17:00:10;97420;;;11.7;71.5
68489;BME280;55481;48.764;8.936;2024-02-14T17:02:41;97430;;;11.7;71.5
68489;BME280;55481;48.764;8.936;2024-02-14T17:05:12;97440;;;11.7;71.5
68489;BME280;55481;48.764;8.936;2024-02-14T17:07:49;97430;;;11.8;71.5
68489;BME280;55481;48.764;8.936;2024-02-14T17:12:58;97430;;;11.8;71
68489;BME280;55481;48.764;8.936;2024-02-14T17:17:52;97440;;;11.7;71
68489;BME280;55481;48.764;8.936;2024-02-14T17:20:22;97450;;;11.7;71.5
68489;BME280;55481;48.764;8.936;2024-02-14T17:22:52;97440;;;11.8;71
68489;BME280;55481;48.764;8.936;2024-02-14T17:27:47;97450;;;11.8;71
68489;BME280;55481;48.764;8.936;2024-02-14T17:30:24;97450;;;11.8;71
68489;BME280;55481;48.764;8.936;2024-02-14T17:32:55;97450;;;11.8;71
68489;BME280;55481;48.764;8.936;2024-02-14T17:35:26;97460;;;11.7;71
68489;BME280;55481;48.764;8.936;2024-02-14T17:37:57;97440;;;11.7;71
68489;BME280;55481;48.764;8.936;2024-02-14T17:42:53;97440;;;11.7;71
68489;BME280;55481;48.764;8.936;2024-02-14T17:45:24;97450;;;11.7;71.5
68489;BME280;55481;48.764;8.936;2024-02-14T17:47:57;97450;;;11.7;71.5
68489;BME280;55481;48.764;8.936;2024-02-14T17:50:26;97450;;;11.7;71.5
68489;BME280;55481;48.764;8.936;2024-02-14T17:53:03;97450;;;11.5;71.5
68489;BME280;55481;48.764;8.936;2024-02-14T17:55:27;97450;;;11.5;72
68489;BME280;55481;48.764;8.936;2024-02-14T17:57:58;97440;;;11.6;71.5
68489;BME280;55481;48.764;8.936;2024-02-14T18:00:29;97450;;;11.6;71.5
68489;BME280;55481;48.764;8.936;2024-02-14T18:03:01;97440;;;11.7;71
68489;BME280;55481;48.764;8.936;2024-02-14T18:05:34;97450;;;11.7;71
68489;BME280;55481;48.764;8.936;2024-02-14T18:10:36;97440;;;11.6;71
68489;BME280;55481;48.764;8.936;2024-02-14T18:13:04;97450;;;11.6;71
68489;BME280;55481;48.764;8.936;2024-02-14T18:15:35;97450;;;11.6;71.5
68489;BME280;55481;48.764;8.936;2024-02-14T18:18:06;97450;;;11.6;71.5
68489;BME280;55481;48.764;8.936;2024-02-14T18:20:38;97450;;;11.6;71.5
68489;BME280;55481;48.764;8.936;2024-02-14T18:25:39;97460;;;11.6;71.5
68489;BME280;55481;48.764;8.936;2024-02-14T18:28:10;97460;;;11.6;71.5
68489;BME280;55481;48.764;8.936;2024-02-14T18:30:41;97460;;;11.6;71.5
68489;BME280;55481;48.764;8.936;2024-02-14T18:35:49;97470;;;11.6;71.5
68489;BME280;55481;48.764;8.936;2024-02-14T18:38:26;97470;;;11.5;71.5
68489;BME280;55481;48.764;8.936;2024-02-14T18:41:02;97470;;;11.5;71.5
68489;BME280;55481;48.764;8.936;2024-02-14T18:43:20;97470;;;11.5;71.5
68489;BME280;55481;48.764;8.936;2024-02-14T18:48:14;97470;;;11.5;71.5
68489;BME280;55481;48.764;8.936;2024-02-14T18:50:44;97470;;;11.5;71.5
68489;BME280;55481;48.764;8.936;2024-02-14T18:53:15;97470;;;11.5;71.5
68489;BME280;55481;48.764;8.936;2024-02-14T18:55:46;97470;;;11.4;71.5
68489;BME280;55481;48.764;8.936;2024-02-14T18:58:24;97460;;;11.4;71.5
68489;BME280;55481;48.764;8.936;2024-02-14T19:03:12;97470;;;11.3;72
68489;BME280;55481;48.764;8.936;2024-02-14T19:05:43;97470;;;11.2;72
68489;BME280;55481;48.764;8.936;2024-02-14T19:08:14;97470;;;11.2;72